createdAt,value
2022-12-29T00:01:43.131Z,8.02
2022-12-29T00:04:14.938Z,8.16
2022-12-29T00:06:43.145Z,8.38
2022-12-29T00:09:12.133Z,8.37
2022-12-29T00:11:38.601Z,8.54
2022-12-29T00:14:05.186Z,8.41
2022-12-29T00:16:33.020Z,8.26
2022-12-29T00:18:59.885Z,8.24
2022-12-29T00:21:27.012Z,8.38
2022-12-29T00:23:53.489Z,8.37
2022-12-29T00:26:19.966Z,8.46
2022-12-29T00:28:46.425Z,8.52
2022-12-29T00:31:13.031Z,8.57
2022-12-29T00:33:39.612Z,8.58
2022-12-29T00:36:10.994Z,8.61
2022-12-29T00:38:40.977Z,8.58
2022-12-29T00:41:07.512Z,8.67
2022-12-29T00:43:33.987Z,8.62
2022-12-29T00:46:00.433Z,8.42
2022-12-29T00:48:26.909Z,8.53
2022-12-29T00:50:57.132Z,8.62
2022-12-29T00:53:23.632Z,8.63
2022-12-29T00:55:50.145Z,8.47
2022-12-29T00:58:16.609Z,8.57
2022-12-29T01:00:44.425Z,8.70
2022-12-29T01:03:11.000Z,8.69
2022-12-29T01:05:37.827Z,8.59
2022-12-29T01:08:04.788Z,8.77
2022-12-29T01:10:31.306Z,8.84
2022-12-29T01:12:57.751Z,8.96
2022-12-29T01:15:24.298Z,8.95
2022-12-29T01:17:50.752Z,9.02
2022-12-29T01:20:17.287Z,9.14
2022-12-29T01:22:44.842Z,9.20
2022-12-29T01:25:11.320Z,9.17
2022-12-29T01:27:37.780Z,9.19
2022-12-29T01:30:05.053Z,9.19
2022-12-29T01:32:32.220Z,9.09
2022-12-29T01:34:59.322Z,9.17
2022-12-29T01:37:25.901Z,9.20
2022-12-29T01:39:52.420Z,9.22
2022-12-29T01:42:24.099Z,9.14
2022-12-29T01:44:59.115Z,8.97
2022-12-29T01:47:33.267Z,9.00
2022-12-29T01:50:04.111Z,9.15
2022-12-29T01:52:33.455Z,9.09
2022-12-29T01:55:00.928Z,9.01
2022-12-29T01:57:32.365Z,9.13
2022-12-29T02:00:09.259Z,9.11
2022-12-29T02:02:36.399Z,9.16
2022-12-29T02:05:08.804Z,9.21
2022-12-29T02:07:38.111Z,9.08
2022-12-29T02:10:05.167Z,9.05
2022-12-29T02:12:31.723Z,8.95
2022-12-29T02:15:00.479Z,8.97
2022-12-29T02:17:48.762Z,8.93
2022-12-29T02:20:43.048Z,9.01
2022-12-29T02:23:21.743Z,9.19
2022-12-29T02:26:07.189Z,9.17
2022-12-29T02:28:52.337Z,9.17
2022-12-29T02:32:00.758Z,9.29
2022-12-29T02:34:49.098Z,9.52
2022-12-29T02:37:43.700Z,9.38
2022-12-29T02:40:30.265Z,9.50
2022-12-29T02:43:05.369Z,9.53
2022-12-29T02:45:54.166Z,9.50
2022-12-29T02:48:39.484Z,9.26
2022-12-29T02:51:12.149Z,9.43
2022-12-29T02:53:39.159Z,9.60
2022-12-29T02:56:05.917Z,9.62
2022-12-29T02:58:32.444Z,9.63
2022-12-29T03:01:15.888Z,9.79
2022-12-29T03:03:49.797Z,9.82
2022-12-29T03:06:28.392Z,9.84
2022-12-29T03:09:18.992Z,9.81
2022-12-29T03:12:00.680Z,9.94
2022-12-29T03:14:27.160Z,9.95
2022-12-29T03:17:00.973Z,9.89
2022-12-29T03:19:36.213Z,9.81
2022-12-29T03:22:08.685Z,9.58
2022-12-29T03:24:42.183Z,9.55
2022-12-29T03:27:11.497Z,9.58
2022-12-29T03:29:41.870Z,9.52
2022-12-29T03:32:08.456Z,9.34
2022-12-29T03:34:35.940Z,9.45
2022-12-29T03:37:07.280Z,9.57
2022-12-29T03:39:34.047Z,9.66
2022-12-29T03:42:03.542Z,9.82
2022-12-29T03:44:37.909Z,9.88
2022-12-29T03:47:05.011Z,9.88
2022-12-29T03:49:31.650Z,9.95
2022-12-29T03:51:58.329Z,9.91
2022-12-29T03:54:25.358Z,9.93
2022-12-29T03:56:51.891Z,9.88
2022-12-29T03:59:18.510Z,9.85
2022-12-29T04:01:45.095Z,9.53
2022-12-29T04:04:11.658Z,9.70
2022-12-29T04:06:38.221Z,9.69
2022-12-29T04:09:04.861Z,9.45
2022-12-29T04:11:33.211Z,9.46
2022-12-29T04:14:00.912Z,9.61
2022-12-29T04:16:27.408Z,9.49
2022-12-29T04:18:53.917Z,9.31
2022-12-29T04:21:20.397Z,9.38
2022-12-29T04:23:46.886Z,9.45
2022-12-29T04:26:13.429Z,9.54
2022-12-29T04:28:41.171Z,9.52
2022-12-29T04:31:07.937Z,9.65
2022-12-29T04:33:34.475Z,9.70
2022-12-29T04:36:00.962Z,9.67
2022-12-29T04:38:27.708Z,9.46
2022-12-29T04:40:54.222Z,9.07
2022-12-29T04:43:20.802Z,9.17
2022-12-29T04:45:47.702Z,9.16
2022-12-29T04:48:14.641Z,9.15
2022-12-29T04:50:41.933Z,9.20
2022-12-29T04:53:08.795Z,9.20
2022-12-29T04:55:35.419Z,9.39
2022-12-29T04:58:01.887Z,9.27
2022-12-29T05:00:28.387Z,9.29
2022-12-29T05:02:55.108Z,9.51
2022-12-29T05:05:22.416Z,9.57
2022-12-29T05:07:49.053Z,9.35
2022-12-29T05:10:15.616Z,9.53
2022-12-29T05:12:42.275Z,9.55
2022-12-29T05:15:10.301Z,9.58
2022-12-29T05:17:37.325Z,9.18
2022-12-29T05:20:05.914Z,8.96
2022-12-29T05:22:32.375Z,9.11
2022-12-29T05:24:59.574Z,9.18
2022-12-29T05:27:26.157Z,9.22
2022-12-29T05:29:52.695Z,9.29
2022-12-29T05:32:19.300Z,9.26
2022-12-29T05:34:45.762Z,9.26
2022-12-29T05:37:12.277Z,9.18
2022-12-29T05:39:38.861Z,9.13
2022-12-29T05:42:05.394Z,9.10
2022-12-29T05:44:31.851Z,9.20
2022-12-29T05:46:58.424Z,9.25
2022-12-29T05:49:25.028Z,9.37
2022-12-29T05:51:51.523Z,9.54
2022-12-29T05:54:18.071Z,9.57
2022-12-29T05:56:45.171Z,9.76
2022-12-29T05:59:11.677Z,9.82
2022-12-29T06:01:38.340Z,9.77
2022-12-29T06:04:04.981Z,9.89
2022-12-29T06:06:31.469Z,9.90
2022-12-29T06:08:58.061Z,9.90
2022-12-29T06:11:27.281Z,9.83
2022-12-29T06:13:53.834Z,9.80
2022-12-29T06:16:20.716Z,9.84
2022-12-29T06:18:47.417Z,9.75
2022-12-29T06:21:13.919Z,9.72
2022-12-29T06:23:40.815Z,9.60
2022-12-29T06:26:07.344Z,9.48
2022-12-29T06:28:33.861Z,9.58
2022-12-29T06:31:00.459Z,9.38
2022-12-29T06:33:26.937Z,9.55
2022-12-29T06:35:53.541Z,9.52
2022-12-29T06:38:20.098Z,9.50
2022-12-29T06:40:46.735Z,9.50
2022-12-29T06:43:13.233Z,9.45
2022-12-29T06:45:40.630Z,9.56
2022-12-29T06:48:07.712Z,9.70
2022-12-29T06:50:34.281Z,9.35
2022-12-29T06:53:03.912Z,9.17
2022-12-29T06:55:30.391Z,9.40
2022-12-29T06:57:58.250Z,9.34
2022-12-29T07:00:25.511Z,9.57
2022-12-29T07:02:52.225Z,9.29
2022-12-29T07:05:19.084Z,9.11
2022-12-29T07:07:47.024Z,8.85
2022-12-29T07:10:13.669Z,8.94
2022-12-29T07:12:40.167Z,9.12
2022-12-29T07:15:07.162Z,9.26
2022-12-29T07:17:33.745Z,9.19
2022-12-29T07:20:00.418Z,9.36
2022-12-29T07:22:26.973Z,9.39
2022-12-29T07:24:53.486Z,9.42
2022-12-29T07:27:19.941Z,9.31
2022-12-29T07:29:46.424Z,9.03
2022-12-29T07:32:12.995Z,9.13
2022-12-29T07:34:39.581Z,9.21
2022-12-29T07:37:06.740Z,9.39
2022-12-29T07:39:34.951Z,9.42
2022-12-29T07:42:05.023Z,9.13
2022-12-29T07:44:31.602Z,9.28
2022-12-29T07:46:58.992Z,9.52
2022-12-29T07:49:25.897Z,9.65
2022-12-29T07:51:52.833Z,9.56
2022-12-29T07:54:20.667Z,9.75
2022-12-29T07:56:47.309Z,9.56
2022-12-29T07:59:13.885Z,9.26
2022-12-29T08:01:40.591Z,9.51
2022-12-29T08:04:07.279Z,9.62
2022-12-29T08:06:33.829Z,9.83
2022-12-29T08:09:05.692Z,9.71
2022-12-29T08:11:38.790Z,9.95
2022-12-29T08:14:05.308Z,10.01
2022-12-29T08:16:31.801Z,10.22
2022-12-29T08:18:58.285Z,10.34
2022-12-29T08:21:24.772Z,10.70
2022-12-29T08:23:51.249Z,10.85
2022-12-29T08:26:17.714Z,11.19
2022-12-29T08:28:44.192Z,11.36
2022-12-29T08:31:11.107Z,11.62
2022-12-29T08:33:37.610Z,11.06
2022-12-29T08:36:06.241Z,10.93
2022-12-29T08:38:32.996Z,11.15
2022-12-29T08:40:59.992Z,10.93
2022-12-29T08:43:26.629Z,10.96
2022-12-29T08:45:53.130Z,10.90
2022-12-29T08:48:19.753Z,10.41
2022-12-29T08:50:47.881Z,10.54
2022-12-29T08:53:14.349Z,10.59
2022-12-29T08:55:40.980Z,10.68
2022-12-29T08:58:07.718Z,10.61
2022-12-29T09:00:34.211Z,10.56
2022-12-29T09:03:00.766Z,10.34
2022-12-29T09:05:27.426Z,10.53
2022-12-29T09:07:53.862Z,10.44
2022-12-29T09:10:20.536Z,10.69
2022-12-29T09:12:47.075Z,10.83
2022-12-29T09:15:13.601Z,11.08
2022-12-29T09:17:40.076Z,11.11
2022-12-29T09:20:06.988Z,11.27
2022-12-29T09:22:33.523Z,11.28
2022-12-29T09:25:00.150Z,11.42
2022-12-29T09:27:26.742Z,11.20
2022-12-29T09:29:53.188Z,11.03
2022-12-29T09:32:19.894Z,11.15
2022-12-29T09:34:47.589Z,11.24
2022-12-29T09:37:14.126Z,11.36
2022-12-29T09:39:40.629Z,11.29
2022-12-29T09:42:22.146Z,11.20
2022-12-29T09:44:54.360Z,11.20
2022-12-29T09:47:21.744Z,11.14
2022-12-29T09:50:23.467Z,11.02
2022-12-29T09:53:12.526Z,11.10
2022-12-29T09:55:47.021Z,11.15
2022-12-29T09:58:25.841Z,11.33
2022-12-29T10:01:34.664Z,11.37
2022-12-29T10:04:04.288Z,11.57
2022-12-29T10:07:27.546Z,11.72
2022-12-29T10:10:09.665Z,11.79
2022-12-29T10:13:00.424Z,11.56
2022-12-29T10:15:40.694Z,11.48
2022-12-29T10:18:19.993Z,11.60
2022-12-29T10:20:53.970Z,11.79
2022-12-29T10:23:30.742Z,11.99
2022-12-29T10:25:58.772Z,11.98
2022-12-29T10:28:35.923Z,11.91
2022-12-29T10:31:08.904Z,11.79
2022-12-29T10:33:38.802Z,11.39
2022-12-29T10:36:21.960Z,11.50
2022-12-29T10:39:24.963Z,11.77
2022-12-29T10:42:00.323Z,11.83
2022-12-29T10:44:30.796Z,12.03
2022-12-29T10:47:00.250Z,12.10
2022-12-29T10:49:28.066Z,11.98
2022-12-29T10:51:56.760Z,11.84
2022-12-29T10:54:34.754Z,11.87
2022-12-29T10:57:06.900Z,12.03
2022-12-29T10:59:36.632Z,12.29
2022-12-29T11:02:12.982Z,12.27
2022-12-29T11:04:51.830Z,12.33
2022-12-29T11:07:25.079Z,12.40
2022-12-29T11:09:53.771Z,12.61
2022-12-29T11:12:29.021Z,12.52
2022-12-29T11:15:16.282Z,12.52
2022-12-29T11:17:51.446Z,12.45
2022-12-29T11:20:39.651Z,12.31
2022-12-29T11:23:24.244Z,12.01
2022-12-29T11:26:25.355Z,11.88
2022-12-29T11:29:09.158Z,12.08
2022-12-29T11:31:43.369Z,12.25
2022-12-29T11:34:12.506Z,12.27
2022-12-29T11:36:39.749Z,12.51
2022-12-29T11:39:12.119Z,12.39
2022-12-29T11:41:52.834Z,12.45
2022-12-29T11:44:19.512Z,11.82
2022-12-29T11:46:49.311Z,11.80
2022-12-29T11:49:23.943Z,12.09
2022-12-29T11:51:51.869Z,12.21
2022-12-29T11:54:33.026Z,12.68
2022-12-29T11:57:13.443Z,12.75
2022-12-29T11:59:42.900Z,12.71
2022-12-29T12:02:43.265Z,12.91
2022-12-29T12:05:23.572Z,12.76
2022-12-29T12:08:03.056Z,12.32
2022-12-29T12:10:52.465Z,11.92
2022-12-29T12:13:27.996Z,11.65
2022-12-29T12:16:03.713Z,11.29
2022-12-29T12:18:43.380Z,11.27
2022-12-29T12:21:12.572Z,10.78
2022-12-29T12:24:00.306Z,10.17
2022-12-29T12:26:36.736Z,9.99
2022-12-29T12:29:21.952Z,9.78
2022-12-29T12:32:02.744Z,9.54
2022-12-29T12:34:51.354Z,9.26
2022-12-29T12:37:43.858Z,9.10
2022-12-29T12:40:31.752Z,8.82
2022-12-29T12:43:38.251Z,8.71
2022-12-29T12:46:29.568Z,8.72
2022-12-29T12:49:08.221Z,8.74
2022-12-29T12:51:59.642Z,8.64
2022-12-29T12:54:52.749Z,8.66
2022-12-29T12:57:22.307Z,8.78
2022-12-29T12:59:51.780Z,8.94
2022-12-29T13:02:36.476Z,8.86
2022-12-29T13:05:27.090Z,8.86
2022-12-29T13:08:07.140Z,8.77
2022-12-29T13:10:51.519Z,8.95
2022-12-29T13:13:35.650Z,9.15
2022-12-29T13:16:14.505Z,9.25
2022-12-29T13:18:52.714Z,9.38
2022-12-29T13:21:27.950Z,9.66
2022-12-29T13:24:06.626Z,9.60
2022-12-29T13:26:47.438Z,9.82
2022-12-29T13:29:40.300Z,10.06
2022-12-29T13:32:27.140Z,10.39
2022-12-29T13:35:18.920Z,10.59
2022-12-29T13:37:55.745Z,10.89
2022-12-29T13:40:26.960Z,10.84
2022-12-29T13:42:54.091Z,10.76
2022-12-29T13:45:23.978Z,10.67
2022-12-29T13:47:56.219Z,10.49
2022-12-29T13:50:27.637Z,10.32
2022-12-29T13:53:25.552Z,10.28
2022-12-29T13:55:56.578Z,10.43
2022-12-29T13:58:36.136Z,10.61
2022-12-29T14:01:21.731Z,10.83
2022-12-29T14:03:54.129Z,10.97
2022-12-29T14:06:26.404Z,11.10
2022-12-29T14:09:04.310Z,11.16
2022-12-29T14:11:39.801Z,11.22
2022-12-29T14:14:19.936Z,10.75
2022-12-29T14:16:46.755Z,10.68
2022-12-29T14:19:18.237Z,10.69
2022-12-29T14:21:56.847Z,10.81
2022-12-29T14:24:35.631Z,10.86
2022-12-29T14:27:22.115Z,10.87
2022-12-29T14:29:49.953Z,11.04
2022-12-29T14:32:25.912Z,10.96
2022-12-29T14:35:00.175Z,11.02
2022-12-29T14:37:34.537Z,10.89
2022-12-29T14:40:07.279Z,10.92
2022-12-29T14:42:34.076Z,10.97
2022-12-29T14:45:04.157Z,11.02
2022-12-29T14:47:42.498Z,10.99
2022-12-29T14:50:11.985Z,11.04
2022-12-29T14:52:48.444Z,10.95
2022-12-29T14:55:18.029Z,10.69
2022-12-29T14:57:59.835Z,10.78
2022-12-29T15:00:31.215Z,10.88
2022-12-29T15:03:07.049Z,10.51
2022-12-29T15:05:48.250Z,10.49
2022-12-29T15:08:19.251Z,10.63
2022-12-29T15:10:54.534Z,10.73
2022-12-29T15:13:33.087Z,10.59
2022-12-29T15:15:59.631Z,10.63
2022-12-29T15:18:33.784Z,10.74
2022-12-29T15:21:05.514Z,10.67
2022-12-29T15:23:36.075Z,10.72
2022-12-29T15:26:05.308Z,10.67
2022-12-29T15:28:40.456Z,10.55
2022-12-29T15:31:13.036Z,10.48
2022-12-29T15:33:41.629Z,10.48
2022-12-29T15:36:24.814Z,10.10
2022-12-29T15:38:51.767Z,10.02
2022-12-29T15:41:35.282Z,10.14
2022-12-29T15:44:22.165Z,10.31
2022-12-29T15:46:48.701Z,10.13
2022-12-29T15:49:15.557Z,10.04
2022-12-29T15:51:42.073Z,10.04
2022-12-29T15:54:22.334Z,9.90
2022-12-29T15:56:49.138Z,9.88
2022-12-29T15:59:28.931Z,9.81
2022-12-29T16:02:00.617Z,9.59
2022-12-29T16:04:30.251Z,9.53
2022-12-29T16:07:05.800Z,9.48
2022-12-29T16:09:36.114Z,9.44
2022-12-29T16:12:06.512Z,9.40
2022-12-29T16:14:34.215Z,9.37
2022-12-29T16:17:03.232Z,9.31
2022-12-29T16:19:33.110Z,9.24
2022-12-29T16:22:00.405Z,9.36
2022-12-29T16:24:29.244Z,9.42
2022-12-29T16:27:21.516Z,9.35
2022-12-29T16:29:53.152Z,9.39
2022-12-29T16:32:28.661Z,9.41
2022-12-29T16:35:36.131Z,9.43
2022-12-29T16:38:22.865Z,9.45
2022-12-29T16:40:54.393Z,9.37
2022-12-29T16:43:35.366Z,9.35
2022-12-29T16:46:01.874Z,9.39
2022-12-29T16:48:30.917Z,9.55
2022-12-29T16:51:06.329Z,9.60
2022-12-29T16:53:35.975Z,9.83
2022-12-29T16:56:18.473Z,9.84
2022-12-29T16:58:49.961Z,9.94
2022-12-29T17:01:16.530Z,10.06
2022-12-29T17:03:49.088Z,9.91
2022-12-29T17:06:17.156Z,9.68
2022-12-29T17:08:44.563Z,9.56
2022-12-29T17:11:30.821Z,9.50
2022-12-29T17:13:57.310Z,9.45
2022-12-29T17:16:23.842Z,9.17
2022-12-29T17:19:00.735Z,9.18
2022-12-29T17:21:27.269Z,9.38
2022-12-29T17:23:53.736Z,9.38
2022-12-29T17:26:20.224Z,9.45
2022-12-29T17:28:47.086Z,9.35
2022-12-29T17:31:22.390Z,9.19
2022-12-29T17:33:48.935Z,9.36
2022-12-29T17:36:15.412Z,9.35
2022-12-29T17:38:41.860Z,9.31
2022-12-29T17:41:14.905Z,9.37
2022-12-29T17:43:41.393Z,9.48
2022-12-29T17:46:10.733Z,9.51
2022-12-29T17:48:37.370Z,9.55
2022-12-29T17:51:04.009Z,9.75
2022-12-29T17:53:31.157Z,9.83
2022-12-29T17:55:57.823Z,10.01
2022-12-29T17:58:26.268Z,10.15
2022-12-29T18:00:58.338Z,9.96
2022-12-29T18:03:34.643Z,9.94
2022-12-29T18:06:01.777Z,10.10
2022-12-29T18:08:28.287Z,9.92
2022-12-29T18:10:55.188Z,9.76
2022-12-29T18:13:33.570Z,9.72
2022-12-29T18:16:05.982Z,9.58
2022-12-29T18:18:32.554Z,9.74
2022-12-29T18:20:59.756Z,9.66
2022-12-29T18:23:33.459Z,9.63
2022-12-29T18:26:02.358Z,9.67
2022-12-29T18:28:29.403Z,9.82
2022-12-29T18:30:57.711Z,9.77
2022-12-29T18:33:26.376Z,9.69
2022-12-29T18:36:04.161Z,9.74
2022-12-29T18:38:31.045Z,9.53
2022-12-29T18:40:58.534Z,9.39
2022-12-29T18:43:25.213Z,9.49
2022-12-29T18:45:51.778Z,9.47
2022-12-29T18:48:19.795Z,9.81
2022-12-29T18:50:47.270Z,9.82
2022-12-29T18:53:18.657Z,9.78
2022-12-29T18:55:45.176Z,9.72
2022-12-29T18:58:11.984Z,9.50
2022-12-29T19:00:38.577Z,9.42
2022-12-29T19:03:06.374Z,9.27
2022-12-29T19:05:38.761Z,9.16
2022-12-29T19:08:06.417Z,9.31
2022-12-29T19:10:33.479Z,9.58
2022-12-29T19:13:00.146Z,9.70
2022-12-29T19:15:34.216Z,9.80
2022-12-29T19:20:50.950Z,9.66
2022-12-29T19:23:19.828Z,9.64
2022-12-29T19:25:46.585Z,9.56
2022-12-29T19:28:19.578Z,9.63
2022-12-29T19:30:51.687Z,9.71
2022-12-29T19:33:20.359Z,9.86
2022-12-29T19:35:46.971Z,9.81
2022-12-29T19:38:14.096Z,9.79
2022-12-29T19:40:46.119Z,9.80
2022-12-29T19:43:13.959Z,9.53
2022-12-29T19:45:41.899Z,9.45
2022-12-29T19:48:12.305Z,9.33
2022-12-29T19:50:38.943Z,9.18
2022-12-29T19:53:05.937Z,8.98
2022-12-29T19:55:34.001Z,9.23
2022-12-29T19:58:01.718Z,9.21
2022-12-29T20:00:28.273Z,9.25
2022-12-29T20:03:00.343Z,9.36
2022-12-29T20:05:27.338Z,9.30
2022-12-29T20:07:53.836Z,9.48
2022-12-29T20:10:20.420Z,9.52
2022-12-29T20:12:46.893Z,9.55
2022-12-29T20:15:14.366Z,9.53
2022-12-29T20:20:28.421Z,9.45
2022-12-29T20:22:55.391Z,9.32
2022-12-29T20:28:08.604Z,9.44
2022-12-29T20:30:38.088Z,9.57
2022-12-29T20:33:08.012Z,9.58
2022-12-29T20:35:35.400Z,9.51
2022-12-29T20:38:01.933Z,9.49
2022-12-29T20:40:28.430Z,9.47
2022-12-29T20:42:54.928Z,9.65
2022-12-29T20:45:21.496Z,9.67
2022-12-29T20:47:48.073Z,9.64
2022-12-29T20:50:15.110Z,9.76
2022-12-29T20:52:41.776Z,9.44
2022-12-29T20:55:08.460Z,9.39
2022-12-29T20:57:57.022Z,9.50
2022-12-29T21:00:22.797Z,9.65
2022-12-29T21:02:50.007Z,9.78
2022-12-29T21:05:25.303Z,9.71
2022-12-29T21:07:53.701Z,9.64
2022-12-29T21:10:20.873Z,9.50
2022-12-29T21:12:47.844Z,9.39
2022-12-29T21:15:14.936Z,9.52
2022-12-29T21:17:42.767Z,9.67
2022-12-29T21:20:09.809Z,9.76
2022-12-29T21:22:36.319Z,9.49
2022-12-29T21:25:02.789Z,9.53
2022-12-29T21:27:29.362Z,9.64
2022-12-29T21:29:55.902Z,9.68
2022-12-29T21:32:22.399Z,9.77
2022-12-29T21:34:48.864Z,9.81
2022-12-29T21:37:21.639Z,9.89
2022-12-29T21:39:49.944Z,9.82
2022-12-29T21:42:17.006Z,9.74
2022-12-29T21:44:43.578Z,9.60
2022-12-29T21:47:10.334Z,9.66
2022-12-29T21:49:37.012Z,9.58
2022-12-29T21:52:03.735Z,9.33
2022-12-29T21:54:30.701Z,9.32
2022-12-29T21:56:57.303Z,9.12
2022-12-29T21:59:24.145Z,9.01
2022-12-29T22:01:50.925Z,8.93
2022-12-29T22:04:19.462Z,8.92
2022-12-29T22:06:46.206Z,9.00
2022-12-29T22:09:12.682Z,8.78
2022-12-29T22:11:39.172Z,8.97
2022-12-29T22:14:05.733Z,9.05
2022-12-29T22:16:32.263Z,9.22
2022-12-29T22:18:58.901Z,9.37
2022-12-29T22:21:25.369Z,9.36
2022-12-29T22:23:51.869Z,9.38
2022-12-29T22:26:18.393Z,9.39
2022-12-29T22:28:45.467Z,9.17
2022-12-29T22:31:25.644Z,9.20
2022-12-29T22:33:52.253Z,9.34
2022-12-29T22:36:18.710Z,9.56
2022-12-29T22:38:45.244Z,9.68
2022-12-29T22:41:11.776Z,9.71
2022-12-29T22:43:38.226Z,9.74
2022-12-29T22:46:05.885Z,9.84
2022-12-29T22:48:33.111Z,9.79
2022-12-29T22:51:18.451Z,9.66
2022-12-29T22:54:03.532Z,9.64
2022-12-29T22:56:48.556Z,9.60
2022-12-29T22:59:15.558Z,9.28
2022-12-29T23:01:42.376Z,9.29
2022-12-29T23:04:58.772Z,9.38
2022-12-29T23:06:55.633Z,9.21
2022-12-29T23:09:22.500Z,9.26
2022-12-29T23:11:49.776Z,9.35
2022-12-29T23:14:16.431Z,9.61
2022-12-29T23:16:43.849Z,9.67
2022-12-29T23:19:11.717Z,9.53
2022-12-29T23:21:38.717Z,9.68
2022-12-29T23:24:05.718Z,9.75
2022-12-29T23:26:32.082Z,9.58
2022-12-29T23:29:00.436Z,9.52
2022-12-29T23:31:27.915Z,9.76
2022-12-29T23:33:54.493Z,9.73
2022-12-29T23:36:21.191Z,9.36
2022-12-29T23:38:47.812Z,9.47
2022-12-29T23:41:14.355Z,9.29
2022-12-29T23:43:42.614Z,9.30
2022-12-29T23:46:13.012Z,9.26
2022-12-29T23:48:40.585Z,9.35
2022-12-29T23:51:07.619Z,9.10
2022-12-29T23:53:39.641Z,8.97
2022-12-29T23:56:08.249Z,9.09
2022-12-29T23:58:35.629Z,9.10
